createdAt,value
2022-07-29T00:00:00.945Z,100754.09
2022-07-29T00:02:33.199Z,100756.02
2022-07-29T00:05:03.463Z,100747.30
2022-07-29T00:07:33.728Z,100754.48
2022-07-29T00:10:06.179Z,100752.68
2022-07-29T00:12:36.805Z,100753.41
2022-07-29T00:15:09.773Z,100748.64
2022-07-29T00:17:40.623Z,100751.17
2022-07-29T00:20:11.104Z,100756.19
2022-07-29T00:22:43.204Z,100753.59
2022-07-29T00:25:14.175Z,100749.91
2022-07-29T00:27:46.652Z,100752.09
2022-07-29T00:30:16.056Z,100748.22
2022-07-29T00:32:45.508Z,100742.37
2022-07-29T00:35:33.804Z,100748.14
2022-07-29T00:38:04.078Z,100743.55
2022-07-29T00:40:34.681Z,100744.88
2022-07-29T00:43:04.956Z,100739.93
2022-07-29T00:45:35.684Z,100741.02
2022-07-29T00:48:05.932Z,100749.53
2022-07-29T00:50:37.333Z,100747.78
2022-07-29T00:53:08.292Z,100749.16
2022-07-29T00:55:38.719Z,100744.34
2022-07-29T00:58:08.112Z,100748.68
2022-07-29T01:00:37.841Z,100740.05
2022-07-29T01:03:09.106Z,100742.52
2022-07-29T01:05:50.088Z,100737.16
2022-07-29T01:08:12.639Z,100732.63
2022-07-29T01:10:42.933Z,100731.19
2022-07-29T01:13:12.264Z,100726.48
2022-07-29T01:15:49.539Z,100733.80
2022-07-29T01:18:34.052Z,100736.98
2022-07-29T01:21:54.812Z,100728.84
2022-07-29T01:24:45.926Z,100735.72
2022-07-29T01:27:24.939Z,100737.52
2022-07-29T01:29:59.718Z,100734.67
2022-07-29T01:32:32.780Z,100733.29
2022-07-29T01:35:21.056Z,100727.98
2022-07-29T01:38:01.866Z,100734.13
2022-07-29T01:40:54.714Z,100737.45
2022-07-29T01:43:35.017Z,100739.61
2022-07-29T01:46:08.097Z,100736.84
2022-07-29T01:48:50.341Z,100742.86
2022-07-29T01:51:27.214Z,100738.58
2022-07-29T01:54:20.620Z,100732.96
2022-07-29T01:56:52.085Z,100735.50
2022-07-29T01:59:21.428Z,100733.50
2022-07-29T02:01:51.705Z,100736.75
2022-07-29T02:04:26.706Z,100739.52
2022-07-29T02:06:56.909Z,100743.07
2022-07-29T02:09:29.015Z,100745.78
2022-07-29T02:11:58.787Z,100741.31
2022-07-29T02:14:33.299Z,100742.64
2022-07-29T02:17:04.292Z,100748.18
2022-07-29T02:19:34.075Z,100748.18
2022-07-29T02:22:05.650Z,100750.17
2022-07-29T02:24:37.704Z,100746.31
2022-07-29T02:27:09.252Z,100747.27
2022-07-29T02:29:40.310Z,100748.05
2022-07-29T02:32:10.530Z,100748.28
2022-07-29T02:34:40.437Z,100749.26
2022-07-29T02:37:11.713Z,100753.42
2022-07-29T02:39:43.085Z,100751.42
2022-07-29T02:42:17.404Z,100751.72
2022-07-29T02:44:48.539Z,100743.28
2022-07-29T02:47:45.989Z,100746.80
2022-07-29T02:50:27.092Z,100746.95
2022-07-29T02:53:04.414Z,100759.59
2022-07-29T02:55:41.477Z,100756.18
2022-07-29T02:58:32.874Z,100756.28
2022-07-29T03:01:08.462Z,100749.42
2022-07-29T03:03:40.297Z,100754.66
2022-07-29T03:06:09.657Z,100754.25
2022-07-29T03:08:40.825Z,100758.64
2022-07-29T03:11:11.451Z,100763.11
2022-07-29T03:13:42.722Z,100769.73
2022-07-29T03:16:13.699Z,100772.73
2022-07-29T03:18:45.422Z,100768.81
2022-07-29T03:21:15.077Z,100766.89
2022-07-29T03:23:48.165Z,100766.66
2022-07-29T03:26:18.224Z,100764.36
2022-07-29T03:28:48.147Z,100760.27
2022-07-29T03:31:18.098Z,100760.88
2022-07-29T03:33:49.482Z,100759.91
2022-07-29T03:36:20.121Z,100761.66
2022-07-29T03:38:50.923Z,100761.56
2022-07-29T03:41:22.321Z,100767.17
2022-07-29T03:43:54.335Z,100767.72
2022-07-29T03:46:24.663Z,100763.63
2022-07-29T03:48:58.966Z,100769.84
2022-07-29T03:51:33.954Z,100768.53
2022-07-29T03:54:09.479Z,100772.98
2022-07-29T03:56:39.239Z,100771.12
2022-07-29T03:59:08.797Z,100766.56
2022-07-29T04:01:39.561Z,100771.70
2022-07-29T04:04:11.334Z,100774.91
2022-07-29T04:06:44.495Z,100766.48
2022-07-29T04:09:16.577Z,100767.25
2022-07-29T04:12:02.383Z,100772.98
2022-07-29T04:14:19.516Z,100765.75
2022-07-29T04:16:51.504Z,100764.37
2022-07-29T04:19:21.131Z,100766.56
2022-07-29T04:21:50.819Z,100768.38
2022-07-29T04:24:21.304Z,100766.31
2022-07-29T04:26:52.511Z,100767.33
2022-07-29T04:29:22.412Z,100773.15
2022-07-29T04:31:51.522Z,100768.36
2022-07-29T04:34:21.287Z,100765.80
2022-07-29T04:36:50.792Z,100766.86
2022-07-29T04:39:23.355Z,100767.06
2022-07-29T04:41:54.917Z,100764.98
2022-07-29T04:44:28.928Z,100766.64
2022-07-29T04:46:58.896Z,100758.16
2022-07-29T04:49:29.287Z,100761.42
2022-07-29T04:51:58.849Z,100759.98
2022-07-29T04:54:28.932Z,100760.50
2022-07-29T04:56:59.847Z,100763.22
2022-07-29T04:59:30.101Z,100767.09
2022-07-29T05:01:59.554Z,100765.66
2022-07-29T05:04:30.643Z,100765.38
2022-07-29T05:07:00.335Z,100766.16
2022-07-29T05:09:33.315Z,100764.96
2022-07-29T05:12:04.058Z,100764.92
2022-07-29T05:14:34.326Z,100753.72
2022-07-29T05:17:06.284Z,100754.82
2022-07-29T05:19:39.508Z,100755.36
2022-07-29T05:22:10.368Z,100755.84
2022-07-29T05:24:41.961Z,100768.38
2022-07-29T05:27:11.453Z,100760.03
2022-07-29T05:29:44.344Z,100762.81
2022-07-29T05:32:15.207Z,100761.08
2022-07-29T05:34:51.240Z,100764.06
2022-07-29T05:37:18.585Z,100769.80
2022-07-29T05:39:56.381Z,100765.48
2022-07-29T05:42:21.643Z,100772.54
2022-07-29T05:44:51.875Z,100765.61
2022-07-29T05:47:22.479Z,100767.03
2022-07-29T05:49:53.193Z,100764.77
2022-07-29T05:52:23.124Z,100768.97
2022-07-29T05:54:53.193Z,100769.80
2022-07-29T05:57:24.440Z,100769.47
2022-07-29T05:59:53.913Z,100766.60
2022-07-29T06:02:26.638Z,100763.39
2022-07-29T06:04:58.141Z,100764.95
2022-07-29T06:07:29.769Z,100766.52
2022-07-29T06:10:00.982Z,100766.66
2022-07-29T06:12:31.548Z,100768.73
2022-07-29T06:15:01.058Z,100768.38
2022-07-29T06:17:33.612Z,100768.03
2022-07-29T06:20:04.785Z,100760.52
2022-07-29T06:22:36.547Z,100762.51
2022-07-29T06:25:06.941Z,100764.30
2022-07-29T06:27:37.404Z,100764.17
2022-07-29T06:30:09.666Z,100773.11
2022-07-29T06:32:43.340Z,100765.06
2022-07-29T06:35:37.718Z,100765.31
2022-07-29T06:37:44.660Z,100767.28
2022-07-29T06:40:36.959Z,100767.25
2022-07-29T06:43:08.279Z,100767.25
2022-07-29T06:45:42.556Z,100771.44
2022-07-29T06:48:12.687Z,100755.18
2022-07-29T06:50:42.780Z,100770.27
2022-07-29T06:53:12.361Z,100769.20
2022-07-29T06:55:43.628Z,100764.98
2022-07-29T06:58:17.272Z,100762.37
2022-07-29T07:00:49.099Z,100761.30
2022-07-29T07:03:20.394Z,100759.74
2022-07-29T07:05:52.917Z,100755.48
2022-07-29T07:08:24.587Z,100756.02
2022-07-29T07:10:56.018Z,100749.99
2022-07-29T07:13:26.066Z,100753.25
2022-07-29T07:15:58.056Z,100751.45
2022-07-29T07:18:29.953Z,100755.86
2022-07-29T07:21:01.691Z,100756.51
2022-07-29T07:23:31.888Z,100758.25
2022-07-29T07:26:02.188Z,100769.43
2022-07-29T07:28:33.160Z,100774.25
2022-07-29T07:31:05.590Z,100777.91
2022-07-29T07:33:37.834Z,100776.43
2022-07-29T07:36:08.825Z,100768.84
2022-07-29T07:38:41.592Z,100776.88
2022-07-29T07:41:11.779Z,100768.18
2022-07-29T07:43:41.039Z,100766.17
2022-07-29T07:46:11.441Z,100775.11
2022-07-29T07:48:42.712Z,100768.86
2022-07-29T07:51:12.578Z,100773.05
2022-07-29T07:53:41.817Z,100774.46
2022-07-29T07:56:13.609Z,100773.48
2022-07-29T07:58:43.280Z,100776.82
2022-07-29T08:01:12.389Z,100773.63
2022-07-29T08:03:43.198Z,100781.75
2022-07-29T08:06:14.636Z,100779.63
2022-07-29T08:08:44.289Z,100783.61
2022-07-29T08:11:14.714Z,100785.78
2022-07-29T08:13:45.312Z,100776.09
2022-07-29T08:16:17.017Z,100780.34
2022-07-29T08:18:46.796Z,100785.27
2022-07-29T08:21:17.535Z,100785.87
2022-07-29T08:24:00.684Z,100782.35
2022-07-29T08:26:26.542Z,100779.11
2022-07-29T08:28:55.906Z,100780.86
2022-07-29T08:31:27.643Z,100771.19
2022-07-29T08:34:00.026Z,100770.60
2022-07-29T08:36:29.796Z,100772.11
2022-07-29T08:39:01.848Z,100770.60
2022-07-29T08:41:32.997Z,100769.30
2022-07-29T08:44:03.467Z,100774.88
2022-07-29T08:46:38.199Z,100768.02
2022-07-29T08:49:10.599Z,100768.68
2022-07-29T08:51:49.293Z,100767.59
2022-07-29T08:54:13.785Z,100771.16
2022-07-29T08:56:44.611Z,100765.14
2022-07-29T08:59:16.645Z,100765.70
2022-07-29T09:01:49.030Z,100768.25
2022-07-29T09:04:19.104Z,100765.28
2022-07-29T09:06:52.951Z,100768.72
2022-07-29T09:09:23.650Z,100770.27
2022-07-29T09:11:54.802Z,100759.86
2022-07-29T09:14:24.824Z,100762.23
2022-07-29T09:16:57.396Z,100765.89
2022-07-29T09:19:32.337Z,100763.44
2022-07-29T09:22:03.692Z,100763.44
2022-07-29T09:24:49.432Z,100763.31
2022-07-29T09:27:24.278Z,100767.18
2022-07-29T09:30:07.586Z,100763.45
2022-07-29T09:33:01.583Z,100767.50
2022-07-29T09:35:31.536Z,100764.28
2022-07-29T09:38:13.427Z,100749.37
2022-07-29T09:40:43.614Z,100758.84
2022-07-29T09:43:14.066Z,100764.23
2022-07-29T09:45:43.862Z,100760.31
2022-07-29T09:48:20.175Z,100760.05
2022-07-29T09:50:50.594Z,100761.81
2022-07-29T09:53:38.564Z,100751.41
2022-07-29T09:56:07.879Z,100763.98
2022-07-29T09:58:39.525Z,100759.05
2022-07-29T10:01:09.958Z,100755.81
2022-07-29T10:03:54.005Z,100755.81
2022-07-29T10:06:23.078Z,100754.94
2022-07-29T10:08:53.595Z,100753.26
2022-07-29T10:11:23.591Z,100749.09
2022-07-29T10:13:53.040Z,100749.94
2022-07-29T10:16:28.621Z,100744.16
2022-07-29T10:18:59.174Z,100747.30
2022-07-29T10:21:36.016Z,100739.92
2022-07-29T10:24:05.338Z,100726.07
2022-07-29T10:26:36.049Z,100728.98
2022-07-29T10:29:05.442Z,100728.27
2022-07-29T10:31:47.832Z,100728.27
2022-07-29T10:34:31.208Z,100724.95
2022-07-29T10:37:23.351Z,100727.88
2022-07-29T10:40:41.343Z,100729.34
2022-07-29T10:43:23.030Z,100731.62
2022-07-29T10:45:55.692Z,100722.83
2022-07-29T10:48:27.309Z,100722.83
2022-07-29T10:51:04.908Z,100716.66
2022-07-29T10:53:53.484Z,100718.19
2022-07-29T10:56:31.714Z,100720.23
2022-07-29T10:59:25.259Z,100722.50
2022-07-29T11:02:27.753Z,100717.17
2022-07-29T11:04:51.241Z,100713.98
2022-07-29T11:07:20.460Z,100713.98
2022-07-29T11:10:20.200Z,100716.83
2022-07-29T11:12:52.051Z,100706.19
2022-07-29T11:15:25.052Z,100706.19
2022-07-29T11:18:04.853Z,100707.66
2022-07-29T11:20:47.794Z,100702.97
2022-07-29T11:23:36.229Z,100707.58
2022-07-29T11:26:23.658Z,100707.32
2022-07-29T11:29:14.912Z,100705.53
2022-07-29T11:31:54.003Z,100703.86
2022-07-29T11:34:33.356Z,100703.89
2022-07-29T11:37:15.323Z,100700.98
2022-07-29T11:40:01.833Z,100702.80
2022-07-29T11:42:41.709Z,100699.66
2022-07-29T11:45:43.488Z,100699.66
2022-07-29T11:47:52.340Z,100694.50
2022-07-29T11:50:37.668Z,100695.59
2022-07-29T11:53:14.911Z,100686.92
2022-07-29T11:55:50.939Z,100684.97
2022-07-29T11:58:17.120Z,100683.78
2022-07-29T12:00:48.925Z,100683.78
2022-07-29T12:03:35.318Z,100681.59
2022-07-29T12:05:59.339Z,100682.16
2022-07-29T12:08:31.876Z,100680.75
2022-07-29T12:11:01.399Z,100678.45
2022-07-29T12:13:37.861Z,100681.80
2022-07-29T12:16:05.996Z,100676.47
2022-07-29T12:18:36.275Z,100683.20
2022-07-29T12:21:09.173Z,100682.42
2022-07-29T12:23:41.926Z,100679.34
2022-07-29T12:26:21.844Z,100676.29
2022-07-29T12:28:47.137Z,100676.60
2022-07-29T12:31:42.882Z,100681.93
2022-07-29T12:33:54.652Z,100673.52
2022-07-29T12:36:25.756Z,100674.47
2022-07-29T12:38:56.316Z,100661.38
2022-07-29T12:41:26.577Z,100661.38
2022-07-29T12:43:57.765Z,100667.27
2022-07-29T12:46:27.651Z,100669.47
2022-07-29T12:48:58.534Z,100663.04
2022-07-29T12:51:40.075Z,100657.87
2022-07-29T12:54:14.756Z,100659.02
2022-07-29T12:56:46.336Z,100651.39
2022-07-29T12:59:22.628Z,100651.39
2022-07-29T13:01:54.506Z,100649.34
2022-07-29T13:04:30.348Z,100651.65
2022-07-29T13:07:07.338Z,100649.08
2022-07-29T13:09:44.578Z,100645.69
2022-07-29T13:12:16.718Z,100651.80
2022-07-29T13:14:51.049Z,100641.61
2022-07-29T13:17:28.328Z,100641.14
2022-07-29T13:20:13.180Z,100643.87
2022-07-29T13:22:44.319Z,100643.77
2022-07-29T13:25:14.028Z,100634.13
2022-07-29T13:27:47.450Z,100635.33
2022-07-29T13:30:17.049Z,100641.34
2022-07-29T13:32:49.078Z,100642.27
2022-07-29T13:35:18.108Z,100638.95
2022-07-29T13:37:48.449Z,100638.38
2022-07-29T13:40:17.861Z,100641.51
2022-07-29T13:42:47.558Z,100630.23
2022-07-29T13:45:18.648Z,100640.94
2022-07-29T13:47:49.999Z,100640.94
2022-07-29T13:50:19.593Z,100637.80
2022-07-29T13:52:51.268Z,100634.25
2022-07-29T13:55:20.978Z,100638.84
2022-07-29T13:57:50.138Z,100636.33
2022-07-29T14:00:20.251Z,100637.84
2022-07-29T14:02:51.099Z,100640.71
2022-07-29T14:05:22.635Z,100637.05
2022-07-29T14:07:55.270Z,100635.64
2022-07-29T14:10:25.780Z,100640.71
2022-07-29T14:12:57.443Z,100638.47
2022-07-29T14:15:29.044Z,100633.34
2022-07-29T14:18:01.903Z,100639.88
2022-07-29T14:20:32.204Z,100633.14
2022-07-29T14:23:02.988Z,100627.81
2022-07-29T14:25:34.618Z,100622.44
2022-07-29T14:28:06.300Z,100617.95
2022-07-29T14:30:36.246Z,100613.93
2022-07-29T14:33:06.035Z,100610.22
2022-07-29T14:35:37.706Z,100607.93
2022-07-29T14:38:09.384Z,100609.81
2022-07-29T14:40:40.124Z,100607.52
2022-07-29T14:43:09.923Z,100600.73
2022-07-29T14:45:39.584Z,100605.06
2022-07-29T14:48:12.362Z,100600.36
2022-07-29T14:50:41.615Z,100606.05
2022-07-29T14:53:13.986Z,100604.06
2022-07-29T14:55:45.079Z,100601.20
2022-07-29T14:58:16.779Z,100600.31
2022-07-29T15:00:47.214Z,100605.32
2022-07-29T15:03:16.337Z,100591.95
2022-07-29T15:05:48.230Z,100593.94
2022-07-29T15:08:18.539Z,100588.04
2022-07-29T15:10:49.035Z,100588.09
2022-07-29T15:13:19.852Z,100587.88
2022-07-29T15:15:50.681Z,100599.47
2022-07-29T15:18:25.424Z,100587.36
2022-07-29T15:20:53.929Z,100581.20
2022-07-29T15:23:25.813Z,100577.86
2022-07-29T15:25:56.857Z,100584.12
2022-07-29T15:28:27.684Z,100575.50
2022-07-29T15:31:00.434Z,100575.92
2022-07-29T15:33:30.844Z,100575.20
2022-07-29T15:36:02.250Z,100578.63
2022-07-29T15:38:32.773Z,100590.48
2022-07-29T15:41:03.410Z,100579.52
2022-07-29T15:43:36.033Z,100578.73
2022-07-29T15:46:24.427Z,100576.84
2022-07-29T15:48:54.402Z,100574.95
2022-07-29T15:51:26.190Z,100578.94
2022-07-29T15:53:56.809Z,100573.97
2022-07-29T15:56:28.294Z,100581.05
2022-07-29T15:58:58.624Z,100584.80
2022-07-29T16:01:28.477Z,100582.02
2022-07-29T16:03:59.418Z,100588.01
2022-07-29T16:06:31.849Z,100592.31
2022-07-29T16:09:01.304Z,100587.03
2022-07-29T16:11:33.184Z,100591.61
2022-07-29T16:14:03.573Z,100595.58
2022-07-29T16:16:33.946Z,100590.91
2022-07-29T16:19:04.847Z,100590.42
2022-07-29T16:21:37.145Z,100585.41
2022-07-29T16:24:08.019Z,100584.03
2022-07-29T16:26:37.975Z,100585.48
2022-07-29T16:29:08.729Z,100581.30
2022-07-29T16:31:39.723Z,100583.89
2022-07-29T16:34:09.939Z,100590.09
2022-07-29T16:36:41.888Z,100590.09
2022-07-29T16:39:12.836Z,100587.89
2022-07-29T16:41:42.685Z,100585.73
2022-07-29T16:44:12.195Z,100589.68
2022-07-29T16:46:47.196Z,100590.82
2022-07-29T16:49:19.177Z,100589.98
2022-07-29T16:51:50.741Z,100589.45
2022-07-29T16:54:21.351Z,100582.76
2022-07-29T16:56:51.600Z,100595.16
2022-07-29T16:59:20.699Z,100590.17
2022-07-29T17:01:51.122Z,100596.97
2022-07-29T17:04:22.980Z,100590.84
2022-07-29T17:06:55.446Z,100594.80
2022-07-29T17:09:26.923Z,100596.01
2022-07-29T17:11:57.851Z,100596.34
2022-07-29T17:14:31.063Z,100591.89
2022-07-29T17:17:02.154Z,100592.77
2022-07-29T17:19:35.271Z,100607.99
2022-07-29T17:22:14.341Z,100605.22
2022-07-29T17:24:39.049Z,100600.76
2022-07-29T17:27:11.133Z,100593.47
2022-07-29T17:29:41.858Z,100593.23
2022-07-29T17:32:13.939Z,100596.94
2022-07-29T17:34:43.168Z,100599.78
2022-07-29T17:37:13.849Z,100601.52
2022-07-29T17:39:45.799Z,100594.25
2022-07-29T17:42:16.383Z,100597.39
2022-07-29T17:44:47.490Z,100600.23
2022-07-29T17:47:17.524Z,100593.56
2022-07-29T17:49:47.998Z,100597.53
2022-07-29T17:52:18.979Z,100602.91
2022-07-29T17:54:49.749Z,100604.63
2022-07-29T17:57:20.554Z,100615.06
2022-07-29T17:59:50.686Z,100610.58
2022-07-29T18:02:22.434Z,100609.77
2022-07-29T18:04:55.266Z,100613.44
2022-07-29T18:07:25.659Z,100611.48
2022-07-29T18:10:00.280Z,100619.64
2022-07-29T18:12:27.337Z,100623.61
2022-07-29T18:14:58.058Z,100625.02
2022-07-29T18:17:50.391Z,100629.25
2022-07-29T18:20:00.892Z,100627.27
2022-07-29T18:22:30.444Z,100632.08
2022-07-29T18:25:00.115Z,100631.53
2022-07-29T18:27:30.956Z,100633.25
2022-07-29T18:30:04.596Z,100638.33
2022-07-29T18:32:34.974Z,100636.10
2022-07-29T18:35:06.073Z,100633.88
2022-07-29T18:38:01.010Z,100645.41
2022-07-29T18:40:12.350Z,100644.56
2022-07-29T18:42:42.361Z,100644.00
2022-07-29T18:45:19.084Z,100644.02
2022-07-29T18:47:44.537Z,100646.28
2022-07-29T18:50:16.739Z,100643.20
2022-07-29T18:52:47.481Z,100641.26
2022-07-29T18:55:18.947Z,100645.47
2022-07-29T18:57:56.095Z,100644.63
2022-07-29T19:00:22.680Z,100646.33
2022-07-29T19:02:52.633Z,100641.86
2022-07-29T19:05:22.983Z,100639.63
2022-07-29T19:07:56.011Z,100647.77
2022-07-29T19:10:27.554Z,100643.29
2022-07-29T19:12:59.219Z,100645.55
2022-07-29T19:15:29.532Z,100652.02
2022-07-29T19:18:01.419Z,100640.52
2022-07-29T19:20:32.363Z,100641.66
2022-07-29T19:23:03.658Z,100635.47
2022-07-29T19:25:35.768Z,100633.51
2022-07-29T19:28:05.355Z,100636.61
2022-07-29T19:30:35.183Z,100648.13
2022-07-29T19:33:05.683Z,100642.52
2022-07-29T19:35:36.099Z,100639.19
2022-07-29T19:38:07.541Z,100639.20
2022-07-29T19:40:39.236Z,100636.69
2022-07-29T19:43:51.022Z,100639.22
2022-07-29T19:45:41.177Z,100638.68
2022-07-29T19:48:13.180Z,100635.58
2022-07-29T19:50:42.981Z,100635.31
2022-07-29T19:53:13.427Z,100633.08
2022-07-29T19:55:43.470Z,100635.89
2022-07-29T19:58:13.341Z,100628.89
2022-07-29T20:00:43.714Z,100626.66
2022-07-29T20:03:14.618Z,100628.92
2022-07-29T20:05:48.030Z,100626.13
2022-07-29T20:08:17.046Z,100626.98
2022-07-29T20:10:46.916Z,100630.94
2022-07-29T20:13:18.505Z,100631.78
2022-07-29T20:15:47.929Z,100623.39
2022-07-29T20:18:18.204Z,100624.25
2022-07-29T20:20:50.015Z,100625.38
2022-07-29T20:23:21.442Z,100624.27
2022-07-29T20:25:54.108Z,100626.23
2022-07-29T20:28:26.671Z,100628.19
2022-07-29T20:30:56.832Z,100627.63
2022-07-29T20:33:27.098Z,100631.28
2022-07-29T20:35:58.371Z,100625.96
2022-07-29T20:38:30.834Z,100631.02
2022-07-29T20:41:02.058Z,100636.89
2022-07-29T20:43:31.564Z,100632.14
2022-07-29T20:46:03.398Z,100635.79
2022-07-29T20:48:32.634Z,100635.52
2022-07-29T20:51:02.141Z,100638.60
2022-07-29T20:53:32.592Z,100638.60
2022-07-29T20:56:02.509Z,100631.88
2022-07-29T20:58:34.178Z,100631.89
2022-07-29T21:01:04.121Z,100627.41
2022-07-29T21:03:33.323Z,100636.69
2022-07-29T21:06:03.589Z,100637.25
2022-07-29T21:08:34.646Z,100636.98
2022-07-29T21:11:04.541Z,100647.08
2022-07-29T21:13:36.230Z,100648.48
2022-07-29T21:16:09.676Z,100648.17
2022-07-29T21:18:42.754Z,100650.42
2022-07-29T21:21:13.031Z,100648.19
2022-07-29T21:23:44.379Z,100650.73
2022-07-29T21:26:14.192Z,100650.17
2022-07-29T21:28:45.223Z,100649.91
2022-07-29T21:31:16.747Z,100652.43
2022-07-29T21:33:46.855Z,100651.03
2022-07-29T21:38:50.012Z,100661.69
2022-07-29T21:41:21.959Z,100663.09
2022-07-29T21:43:52.173Z,100660.86
2022-07-29T21:46:24.413Z,100656.94
2022-07-29T21:48:54.263Z,100661.98
2022-07-29T21:51:23.951Z,100661.99
2022-07-29T21:53:53.105Z,100660.33
2022-07-29T21:56:23.635Z,100656.69
2022-07-29T21:58:55.580Z,100655.01
2022-07-29T22:01:25.474Z,100645.77
2022-07-29T22:03:57.197Z,100652.19
2022-07-29T22:06:26.344Z,100656.11
2022-07-29T22:08:56.298Z,100656.12
2022-07-29T22:11:28.048Z,100658.64
2022-07-29T22:13:57.322Z,100655.28
2022-07-29T22:16:28.820Z,100655.84
2022-07-29T22:18:58.771Z,100658.92
2022-07-29T22:21:30.466Z,100660.32
2022-07-29T22:24:01.101Z,100662.00
2022-07-29T22:26:30.957Z,100659.20
2022-07-29T22:29:01.560Z,100663.38
2022-07-29T22:31:31.045Z,100664.50
2022-07-29T22:34:00.258Z,100663.94
2022-07-29T22:36:30.268Z,100664.50
2022-07-29T22:38:59.152Z,100669.53
2022-07-29T22:41:29.211Z,100662.26
2022-07-29T22:43:59.149Z,100659.46
2022-07-29T22:46:29.033Z,100655.82
2022-07-29T22:48:59.240Z,100650.50
2022-07-29T22:51:29.754Z,100650.78
2022-07-29T22:53:59.121Z,100653.02
2022-07-29T22:56:28.658Z,100646.58
2022-07-29T22:58:58.266Z,100648.25
2022-07-29T23:01:37.258Z,100646.30
2022-07-29T23:04:00.723Z,100640.41
2022-07-29T23:06:30.388Z,100638.70
2022-07-29T23:09:02.133Z,100646.53
2022-07-29T23:11:32.854Z,100650.16
2022-07-29T23:14:02.074Z,100648.76
2022-07-29T23:16:31.894Z,100645.08
2022-07-29T23:19:03.686Z,100647.59
2022-07-29T23:21:34.045Z,100646.75
2022-07-29T23:24:05.066Z,100646.19
2022-07-29T23:26:36.912Z,100639.77
2022-07-29T23:29:08.373Z,100643.68
2022-07-29T23:31:41.807Z,100636.45
2022-07-29T23:34:10.287Z,100628.89
2022-07-29T23:36:39.688Z,100632.53
2022-07-29T23:39:11.904Z,100624.70
2022-07-29T23:41:41.778Z,100630.26
2022-07-29T23:44:12.450Z,100635.84
2022-07-29T23:46:42.568Z,100640.31
2022-07-29T23:49:13.739Z,100646.75
2022-07-29T23:51:42.828Z,100643.39
2022-07-29T23:54:12.450Z,100635.27
2022-07-29T23:56:42.723Z,100637.78
2022-07-29T23:59:12.034Z,100646.17
